createdAt,value
2022-12-23T00:00:26.870Z,99631.28
2022-12-23T00:02:53.343Z,99639.16
2022-12-23T00:05:19.875Z,99630.28
2022-12-23T00:07:46.219Z,99632.84
2022-12-23T00:10:12.624Z,99634.66
2022-12-23T00:12:39.007Z,99629.31
2022-12-23T00:15:05.691Z,99629.31
2022-12-23T00:17:33.369Z,99622.25
2022-12-23T00:20:01.668Z,99614.25
2022-12-23T00:22:28.109Z,99613.28
2022-12-23T00:24:54.421Z,99614.25
2022-12-23T00:27:20.737Z,99621.31
2022-12-23T00:29:47.177Z,99615.97
2022-12-23T00:32:13.638Z,99602.59
2022-12-23T00:34:41.265Z,99590.19
2022-12-23T00:37:07.534Z,99591.06
2022-12-23T00:39:33.864Z,99592.88
2022-12-23T00:42:00.154Z,99592.75
2022-12-23T00:44:26.772Z,99590.19
2022-12-23T00:46:53.127Z,99586.56
2022-12-23T00:49:19.934Z,99597.25
2022-12-23T00:51:47.619Z,99596.41
2022-12-23T00:54:14.163Z,99596.41
2022-12-23T00:56:40.484Z,99591.06
2022-12-23T00:59:06.812Z,99591.91
2022-12-23T01:01:33.432Z,99593.75
2022-12-23T01:03:59.828Z,99591.91
2022-12-23T01:06:26.202Z,99594.56
2022-12-23T01:08:53.918Z,99591.75
2022-12-23T01:11:20.221Z,99589.22
2022-12-23T01:13:46.621Z,99578.53
2022-12-23T01:16:17.130Z,99581.22
2022-12-23T01:18:44.228Z,99585.56
2022-12-23T01:21:10.685Z,99575.88
2022-12-23T01:23:37.287Z,99574.16
2022-12-23T01:26:06.334Z,99588.25
2022-12-23T01:28:33.016Z,99579.50
2022-12-23T01:31:00.196Z,99574.88
2022-12-23T01:33:26.704Z,99578.53
2022-12-23T01:35:59.157Z,99574.03
2022-12-23T01:38:25.492Z,99578.53
2022-12-23T01:40:51.910Z,99582.91
2022-12-23T01:43:20.409Z,99580.22
2022-12-23T01:45:47.104Z,99594.44
2022-12-23T01:48:15.721Z,99595.41
2022-12-23T01:50:44.583Z,99588.25
2022-12-23T01:53:13.764Z,99593.75
2022-12-23T01:55:43.529Z,99591.91
2022-12-23T01:58:11.945Z,99590.06
2022-12-23T02:00:40.818Z,99590.91
2022-12-23T02:03:07.286Z,99594.44
2022-12-23T02:05:34.616Z,99596.25
2022-12-23T02:08:01.110Z,99595.41
2022-12-23T02:10:36.563Z,99581.22
2022-12-23T02:13:08.203Z,99580.22
2022-12-23T02:15:38.770Z,99584.72
2022-12-23T02:18:10.806Z,99588.25
2022-12-23T02:20:52.774Z,99583.75
2022-12-23T02:23:33.541Z,99575.59
2022-12-23T02:26:12.011Z,99575.72
2022-12-23T02:28:48.228Z,99575.88
2022-12-23T02:31:21.717Z,99572.22
2022-12-23T02:33:54.723Z,99568.69
2022-12-23T02:36:27.521Z,99580.22
2022-12-23T02:38:59.463Z,99584.56
2022-12-23T02:41:29.917Z,99579.22
2022-12-23T02:43:59.479Z,99565.88
2022-12-23T02:46:30.974Z,99557.00
2022-12-23T02:48:59.689Z,99550.81
2022-12-23T02:51:29.064Z,99556.16
2022-12-23T02:53:57.280Z,99555.34
2022-12-23T02:56:25.393Z,99552.66
2022-12-23T02:58:54.504Z,99535.63
2022-12-23T03:01:21.090Z,99523.94
2022-12-23T03:03:49.461Z,99509.75
2022-12-23T03:06:19.425Z,99510.75
2022-12-23T03:08:46.065Z,99512.31
2022-12-23T03:11:14.329Z,99514.13
2022-12-23T03:13:48.511Z,99499.06
2022-12-23T03:16:20.716Z,99501.72
2022-12-23T03:18:55.433Z,99508.91
2022-12-23T03:21:24.425Z,99516.09
2022-12-23T03:23:55.706Z,99515.94
2022-12-23T03:26:23.307Z,99518.59
2022-12-23T03:28:54.131Z,99518.59
2022-12-23T03:31:29.773Z,99516.81
2022-12-23T03:33:59.327Z,99509.63
2022-12-23T03:36:28.311Z,99505.25
2022-12-23T03:38:55.931Z,99511.47
2022-12-23T03:41:24.859Z,99506.13
2022-12-23T03:43:54.568Z,99506.13
2022-12-23T03:46:25.298Z,99494.56
2022-12-23T03:48:53.453Z,99492.75
2022-12-23T03:51:23.961Z,99496.38
2022-12-23T03:53:51.973Z,99491.88
2022-12-23T03:56:20.223Z,99491.03
2022-12-23T03:58:49.657Z,99489.22
2022-12-23T04:01:18.939Z,99483.88
2022-12-23T04:03:51.687Z,99497.09
2022-12-23T04:06:19.676Z,99492.75
2022-12-23T04:08:48.393Z,99501.59
2022-12-23T04:11:15.080Z,99502.44
2022-12-23T04:13:41.413Z,99499.78
2022-12-23T04:16:08.030Z,99493.44
2022-12-23T04:18:34.493Z,99487.25
2022-12-23T04:21:00.841Z,99481.06
2022-12-23T04:23:27.168Z,99472.06
2022-12-23T04:25:54.805Z,99473.91
2022-12-23T04:28:21.085Z,99470.38
2022-12-23T04:30:47.432Z,99454.34
2022-12-23T04:33:13.840Z,99450.84
2022-12-23T04:35:40.251Z,99447.31
2022-12-23T04:38:07.322Z,99450.00
2022-12-23T04:40:33.649Z,99444.50
2022-12-23T04:43:01.378Z,99440.16
2022-12-23T04:45:27.719Z,99433.81
2022-12-23T04:47:54.032Z,99440.81
2022-12-23T04:50:20.508Z,99439.16
2022-12-23T04:52:46.840Z,99447.31
2022-12-23T04:55:13.114Z,99452.66
2022-12-23T04:57:39.431Z,99448.16
2022-12-23T05:00:07.746Z,99453.34
2022-12-23T05:02:34.118Z,99447.16
2022-12-23T05:05:00.525Z,99449.84
2022-12-23T05:07:26.837Z,99440.97
2022-12-23T05:09:53.291Z,99449.00
2022-12-23T05:12:19.624Z,99446.16
2022-12-23T05:14:46.112Z,99440.00
2022-12-23T05:17:13.679Z,99423.13
2022-12-23T05:19:39.957Z,99416.09
2022-12-23T05:22:06.286Z,99421.28
2022-12-23T05:24:32.617Z,99400.91
2022-12-23T05:27:00.295Z,99408.91
2022-12-23T05:29:26.862Z,99398.22
2022-12-23T05:31:53.263Z,99407.06
2022-12-23T05:34:21.118Z,99401.88
2022-12-23T05:36:47.569Z,99394.72
2022-12-23T05:39:13.939Z,99393.88
2022-12-23T05:41:40.379Z,99401.88
2022-12-23T05:44:06.667Z,99405.25
2022-12-23T05:46:33.210Z,99404.41
2022-12-23T05:48:59.555Z,99401.72
2022-12-23T05:51:27.152Z,99415.94
2022-12-23T05:53:53.481Z,99408.91
2022-12-23T05:56:19.782Z,99408.75
2022-12-23T05:58:46.105Z,99408.91
2022-12-23T06:01:12.443Z,99400.75
2022-12-23T06:03:38.936Z,99393.59
2022-12-23T06:06:05.617Z,99392.88
2022-12-23T06:08:33.247Z,99384.84
2022-12-23T06:10:59.571Z,99376.84
2022-12-23T06:13:26.009Z,99364.19
2022-12-23T06:15:52.342Z,99353.63
2022-12-23T06:18:18.726Z,99347.44
2022-12-23T06:20:45.400Z,99343.78
2022-12-23T06:23:11.697Z,99331.41
2022-12-23T06:25:39.402Z,99331.25
2022-12-23T06:28:05.709Z,99330.41
2022-12-23T06:30:32.049Z,99338.44
2022-12-23T06:32:58.345Z,99331.25
2022-12-23T06:35:24.693Z,99335.75
2022-12-23T06:37:52.670Z,99349.03
2022-12-23T06:40:18.973Z,99354.47
2022-12-23T06:42:46.594Z,99362.47
2022-12-23T06:45:13.111Z,99363.31
2022-12-23T06:47:39.429Z,99349.88
2022-12-23T06:50:06.371Z,99349.03
2022-12-23T06:52:32.695Z,99344.63
2022-12-23T06:54:59.060Z,99338.34
2022-12-23T06:57:25.354Z,99324.09
2022-12-23T06:59:52.976Z,99290.31
2022-12-23T07:02:19.545Z,99240.38
2022-12-23T07:04:46.076Z,99226.34
2022-12-23T07:07:12.418Z,99238.59
2022-12-23T07:09:38.759Z,99259.09
2022-12-23T07:12:05.390Z,99251.94
2022-12-23T07:14:31.714Z,99241.38
2022-12-23T07:16:59.571Z,99243.94
2022-12-23T07:19:25.912Z,99233.25
2022-12-23T07:21:52.334Z,99241.25
2022-12-23T07:24:18.739Z,99238.59
2022-12-23T07:26:45.025Z,99219.00
2022-12-23T07:29:11.350Z,99217.22
2022-12-23T07:31:40.958Z,99234.13
2022-12-23T07:34:09.106Z,99225.22
2022-12-23T07:36:35.552Z,99238.59
2022-12-23T07:39:01.913Z,99233.25
2022-12-23T07:41:28.244Z,99243.94
2022-12-23T07:43:54.539Z,99259.97
2022-12-23T07:46:21.142Z,99266.19
2022-12-23T07:48:47.492Z,99289.25
2022-12-23T07:51:15.106Z,99288.41
2022-12-23T07:53:41.585Z,99289.38
2022-12-23T07:56:08.319Z,99299.09
2022-12-23T07:58:34.687Z,99301.75
2022-12-23T08:01:01.306Z,99303.59
2022-12-23T08:03:27.811Z,99299.09
2022-12-23T08:05:58.919Z,99293.75
2022-12-23T08:08:26.876Z,99292.03
2022-12-23T08:10:56.487Z,99292.03
2022-12-23T08:13:22.792Z,99293.75
2022-12-23T08:15:49.107Z,99303.44
2022-12-23T08:18:15.459Z,99290.06
2022-12-23T08:20:41.764Z,99291.06
2022-12-23T08:23:08.111Z,99276.88
2022-12-23T08:25:35.865Z,99269.78
2022-12-23T08:28:02.196Z,99281.34
2022-12-23T08:30:28.636Z,99277.72
2022-12-23T08:32:55.049Z,99281.34
2022-12-23T08:35:21.333Z,99291.06
2022-12-23T08:37:47.667Z,99302.59
2022-12-23T08:40:14.132Z,99297.25
2022-12-23T08:42:41.820Z,99307.94
2022-12-23T08:45:08.429Z,99296.41
2022-12-23T08:47:34.774Z,99311.47
2022-12-23T08:50:01.107Z,99301.59
2022-12-23T08:52:27.895Z,99303.59
2022-12-23T08:54:54.225Z,99300.94
2022-12-23T08:57:20.608Z,99307.94
2022-12-23T08:59:48.262Z,99295.41
2022-12-23T09:02:14.790Z,99291.06
2022-12-23T09:04:41.338Z,99290.22
2022-12-23T09:07:07.657Z,99302.72
2022-12-23T09:09:33.994Z,99298.25
2022-12-23T09:12:00.400Z,99296.25
2022-12-23T09:14:26.793Z,99296.25
2022-12-23T09:16:54.318Z,99298.09
2022-12-23T09:19:20.633Z,99299.09
2022-12-23T09:21:46.988Z,99305.28
2022-12-23T09:24:13.283Z,99307.09
2022-12-23T09:26:39.711Z,99308.94
2022-12-23T09:29:06.155Z,99315.13
2022-12-23T09:31:36.813Z,99310.63
2022-12-23T09:34:05.567Z,99311.31
2022-12-23T09:36:31.927Z,99317.63
2022-12-23T09:38:58.465Z,99326.66
2022-12-23T09:41:32.147Z,99315.13
2022-12-23T09:44:07.819Z,99305.28
2022-12-23T09:46:38.149Z,99312.44
2022-12-23T09:49:09.129Z,99307.94
2022-12-23T09:51:35.550Z,99320.47
2022-12-23T09:54:05.099Z,99310.63
2022-12-23T09:56:37.749Z,99321.16
2022-12-23T09:59:08.955Z,99339.03
2022-12-23T10:01:43.008Z,99343.53
2022-12-23T10:04:30.727Z,99343.53
2022-12-23T10:07:12.612Z,99357.72
2022-12-23T10:09:41.163Z,99357.72
2022-12-23T10:12:13.441Z,99361.25
2022-12-23T10:14:40.664Z,99362.25
2022-12-23T10:17:11.905Z,99364.91
2022-12-23T10:19:42.193Z,99374.59
2022-12-23T10:22:11.801Z,99378.13
2022-12-23T10:24:39.630Z,99382.63
2022-12-23T10:27:13.301Z,99376.31
2022-12-23T10:29:40.624Z,99382.63
2022-12-23T10:32:17.547Z,99387.13
2022-12-23T10:34:51.465Z,99386.13
2022-12-23T10:37:22.813Z,99392.47
2022-12-23T10:39:55.183Z,99385.16
2022-12-23T10:42:25.295Z,99396.00
2022-12-23T10:45:05.034Z,99396.97
2022-12-23T10:47:36.531Z,99398.66
2022-12-23T10:50:14.449Z,99397.81
2022-12-23T10:52:42.656Z,99398.66
2022-12-23T10:55:15.875Z,99405.72
2022-12-23T10:57:42.278Z,99393.31
2022-12-23T11:00:15.687Z,99380.78
2022-12-23T11:02:47.238Z,99393.31
2022-12-23T11:05:17.709Z,99394.16
2022-12-23T11:07:45.961Z,99399.50
2022-12-23T11:10:15.499Z,99399.38
2022-12-23T11:12:43.144Z,99411.06
2022-12-23T11:15:19.252Z,99397.69
2022-12-23T11:17:57.153Z,99409.34
2022-12-23T11:20:24.820Z,99400.50
2022-12-23T11:22:51.940Z,99406.69
2022-12-23T11:25:27.797Z,99408.38
2022-12-23T11:27:56.091Z,99388.81
2022-12-23T11:30:22.589Z,99406.56
2022-12-23T11:32:49.545Z,99411.06
2022-12-23T11:35:23.795Z,99403.03
2022-12-23T11:37:51.725Z,99402.16
2022-12-23T11:40:22.697Z,99403.03
2022-12-23T11:42:55.230Z,99406.69
2022-12-23T11:45:23.162Z,99411.06
2022-12-23T11:47:49.476Z,99413.84
2022-12-23T11:50:25.647Z,99416.53
2022-12-23T11:52:54.882Z,99414.69
2022-12-23T11:55:23.420Z,99419.91
2022-12-23T11:57:50.574Z,99409.22
2022-12-23T12:00:18.712Z,99422.59
2022-12-23T12:02:46.153Z,99429.63
2022-12-23T12:05:18.110Z,99423.44
2022-12-23T12:07:44.945Z,99419.91
2022-12-23T12:10:16.966Z,99412.75
2022-12-23T12:12:43.554Z,99419.06
2022-12-23T12:15:20.848Z,99422.44
2022-12-23T12:17:49.053Z,99421.59
2022-12-23T12:20:21.586Z,99415.41
2022-12-23T12:22:49.970Z,99427.94
2022-12-23T12:25:19.459Z,99427.78
2022-12-23T12:27:49.802Z,99425.09
2022-12-23T12:30:18.424Z,99455.34
2022-12-23T12:32:48.557Z,99451.00
2022-12-23T12:35:16.813Z,99451.84
2022-12-23T12:37:48.064Z,99451.00
2022-12-23T12:40:22.114Z,99436.78
2022-12-23T12:42:52.508Z,99432.28
2022-12-23T12:45:20.709Z,99444.81
2022-12-23T12:47:54.470Z,99436.63
2022-12-23T12:50:26.682Z,99435.78
2022-12-23T12:52:55.255Z,99436.78
2022-12-23T12:55:24.977Z,99446.50
2022-12-23T12:57:52.586Z,99451.00
2022-12-23T13:00:20.721Z,99461.53
2022-12-23T13:02:57.095Z,99452.84
2022-12-23T13:05:27.749Z,99457.19
2022-12-23T13:08:01.011Z,99461.69
2022-12-23T13:10:34.203Z,99462.53
2022-12-23T13:13:05.422Z,99461.69
2022-12-23T13:15:34.012Z,99460.84
2022-12-23T13:18:09.822Z,99460.69
2022-12-23T13:20:39.361Z,99464.09
2022-12-23T13:23:41.828Z,99455.22
2022-12-23T13:26:02.319Z,99464.19
2022-12-23T13:28:36.226Z,99467.03
2022-12-23T13:31:10.502Z,99461.53
2022-12-23T13:33:46.228Z,99464.19
2022-12-23T13:36:21.079Z,99465.19
2022-12-23T13:38:57.276Z,99481.13
2022-12-23T13:41:28.222Z,99483.63
2022-12-23T13:43:57.399Z,99479.41
2022-12-23T13:46:27.073Z,99482.91
2022-12-23T13:48:59.403Z,99474.06
2022-12-23T13:51:29.835Z,99483.91
2022-12-23T13:54:04.448Z,99492.78
2022-12-23T13:56:36.200Z,99501.63
2022-12-23T13:59:08.584Z,99513.19
2022-12-23T14:01:36.319Z,99520.34
2022-12-23T14:04:12.712Z,99526.41
2022-12-23T14:06:43.649Z,99528.22
2022-12-23T14:09:14.154Z,99532.75
2022-12-23T14:11:40.510Z,99534.56
2022-12-23T14:14:17.957Z,99540.88
2022-12-23T14:16:49.290Z,99544.41
2022-12-23T14:19:30.717Z,99557.75
2022-12-23T14:22:03.459Z,99563.97
2022-12-23T14:24:42.231Z,99576.47
2022-12-23T14:27:17.159Z,99577.34
2022-12-23T14:29:50.819Z,99586.19
2022-12-23T14:32:19.551Z,99584.50
2022-12-23T14:35:00.873Z,99594.50
2022-12-23T14:37:35.041Z,99597.28
2022-12-23T14:40:16.340Z,99603.50
2022-12-23T14:42:43.476Z,99620.38
2022-12-23T14:45:24.693Z,99622.91
2022-12-23T14:47:52.322Z,99637.84
2022-12-23T14:50:29.186Z,99640.63
2022-12-23T14:52:59.512Z,99626.56
2022-12-23T14:55:35.725Z,99622.06
2022-12-23T14:58:07.845Z,99639.94
2022-12-23T15:00:44.614Z,99637.25
2022-12-23T15:03:12.424Z,99624.00
2022-12-23T15:05:39.857Z,99634.69
2022-12-23T15:08:18.235Z,99635.56
2022-12-23T15:10:44.612Z,99644.44
2022-12-23T15:13:13.967Z,99640.91
2022-12-23T15:15:53.504Z,99642.72
2022-12-23T15:18:23.621Z,99636.53
2022-12-23T15:20:57.704Z,99654.41
2022-12-23T15:23:24.132Z,99647.22
2022-12-23T15:25:50.508Z,99643.72
2022-12-23T15:28:19.169Z,99635.69
2022-12-23T15:30:47.057Z,99651.63
2022-12-23T15:33:52.008Z,99657.06
2022-12-23T15:36:05.626Z,99676.63
2022-12-23T15:38:34.934Z,99659.91
2022-12-23T15:41:02.226Z,99657.91
2022-12-23T15:43:28.614Z,99652.56
2022-12-23T15:45:55.097Z,99658.91
2022-12-23T15:48:23.768Z,99659.06
2022-12-23T15:50:51.283Z,99665.31
2022-12-23T15:53:19.118Z,99677.78
2022-12-23T15:55:47.045Z,99679.44
2022-12-23T15:58:18.164Z,99683.13
2022-12-23T16:00:50.785Z,99680.53
2022-12-23T16:03:22.887Z,99692.94
2022-12-23T16:05:49.337Z,99687.59
2022-12-23T16:08:28.607Z,99682.25
2022-12-23T16:10:57.720Z,99683.94
2022-12-23T16:13:24.097Z,99693.81
2022-12-23T16:15:50.509Z,99695.59
2022-12-23T16:18:20.617Z,99697.41
2022-12-23T16:20:48.610Z,99697.41
2022-12-23T16:23:15.959Z,99700.94
2022-12-23T16:25:50.225Z,99694.88
2022-12-23T16:28:18.670Z,99701.06
2022-12-23T16:30:46.709Z,99701.91
2022-12-23T16:33:23.546Z,99708.09
2022-12-23T16:35:49.967Z,99711.63
2022-12-23T16:38:17.213Z,99717.94
2022-12-23T16:40:44.642Z,99717.09
2022-12-23T16:43:12.337Z,99715.41
2022-12-23T16:45:39.366Z,99707.41
2022-12-23T16:48:09.576Z,99721.59
2022-12-23T16:50:35.918Z,99716.38
2022-12-23T16:53:02.217Z,99715.41
2022-12-23T16:55:28.602Z,99699.38
2022-12-23T16:57:54.935Z,99711.91
2022-12-23T17:00:22.534Z,99709.22
2022-12-23T17:02:49.019Z,99710.19
2022-12-23T17:05:16.085Z,99721.88
2022-12-23T17:07:45.434Z,99737.06
2022-12-23T17:10:12.908Z,99748.59
2022-12-23T17:12:39.400Z,99760.97
2022-12-23T17:15:06.672Z,99772.50
2022-12-23T17:17:35.594Z,99776.88
2022-12-23T17:20:01.907Z,99779.69
2022-12-23T17:22:28.435Z,99761.97
2022-12-23T17:24:54.742Z,99763.78
2022-12-23T17:27:21.160Z,99761.97
2022-12-23T17:29:47.517Z,99765.63
2022-12-23T17:32:16.560Z,99759.28
2022-12-23T17:34:44.196Z,99764.63
2022-12-23T17:37:12.993Z,99761.13
2022-12-23T17:39:39.326Z,99760.13
2022-12-23T17:42:05.692Z,99745.19
2022-12-23T17:44:32.119Z,99746.06
2022-12-23T17:46:58.432Z,99738.88
2022-12-23T17:49:24.725Z,99744.25
2022-12-23T17:51:52.348Z,99743.25
2022-12-23T17:54:21.596Z,99749.44
2022-12-23T17:56:47.926Z,99745.91
2022-12-23T17:59:14.821Z,99748.59
2022-12-23T18:01:41.266Z,99760.13
2022-12-23T18:04:07.996Z,99773.63
2022-12-23T18:06:34.311Z,99780.66
2022-12-23T18:09:01.979Z,99776.16
2022-12-23T18:11:30.918Z,99779.81
2022-12-23T18:13:57.303Z,99780.81
2022-12-23T18:16:23.813Z,99770.81
2022-12-23T18:18:50.175Z,99778.00
2022-12-23T18:21:19.661Z,99783.47
2022-12-23T18:23:46.037Z,99782.59
2022-12-23T18:26:14.444Z,99781.75
2022-12-23T18:28:41.066Z,99794.16
2022-12-23T18:31:13.611Z,99797.81
2022-12-23T18:33:39.973Z,99801.31
2022-12-23T18:36:06.493Z,99792.44
2022-12-23T18:38:32.879Z,99801.31
2022-12-23T18:40:59.190Z,99808.38
2022-12-23T18:43:26.827Z,99811.16
2022-12-23T18:45:54.274Z,99815.56
2022-12-23T18:48:21.027Z,99825.38
2022-12-23T18:50:47.419Z,99823.69
2022-12-23T18:53:21.316Z,99834.25
2022-12-23T18:55:50.115Z,99822.69
2022-12-23T18:58:16.473Z,99827.09
2022-12-23T19:00:44.688Z,99830.72
2022-12-23T19:03:19.710Z,99829.75
2022-12-23T19:05:46.990Z,99824.53
2022-12-23T19:08:13.270Z,99831.69
2022-12-23T19:10:39.584Z,99824.66
2022-12-23T19:13:05.859Z,99823.69
2022-12-23T19:15:32.182Z,99834.25
2022-12-23T19:17:59.876Z,99846.91
2022-12-23T19:20:26.260Z,99838.03
2022-12-23T19:22:52.580Z,99846.91
2022-12-23T19:25:19.047Z,99851.41
2022-12-23T19:27:45.926Z,99854.91
2022-12-23T19:30:13.232Z,99850.41
2022-12-23T19:32:39.572Z,99855.75
2022-12-23T19:35:07.813Z,99851.50
2022-12-23T19:37:34.285Z,99868.41
2022-12-23T19:40:00.642Z,99873.75
2022-12-23T19:42:26.967Z,99869.13
2022-12-23T19:44:53.304Z,99860.41
2022-12-23T19:47:19.615Z,99872.63
2022-12-23T19:49:45.913Z,99869.97
2022-12-23T19:52:13.714Z,99870.94
2022-12-23T19:54:40.043Z,99875.44
2022-12-23T19:57:06.390Z,99884.44
2022-12-23T19:59:32.755Z,99876.28
2022-12-23T20:01:59.204Z,99882.47
2022-12-23T20:04:25.602Z,99882.63
2022-12-23T20:06:52.280Z,99884.44
2022-12-23T20:09:19.933Z,99882.72
2022-12-23T20:11:47.486Z,99874.72
2022-12-23T20:14:14.619Z,99879.09
2022-12-23T20:16:41.260Z,99881.63
2022-12-23T20:19:07.613Z,99894.00
2022-12-23T20:21:34.470Z,99880.06
2022-12-23T20:24:00.983Z,99884.44
2022-12-23T20:26:28.640Z,99876.44
2022-12-23T20:28:55.105Z,99900.47
2022-12-23T20:31:22.707Z,99888.91
2022-12-23T20:33:49.800Z,99884.44
2022-12-23T20:36:16.934Z,99887.13
2022-12-23T20:38:44.480Z,99888.06
2022-12-23T20:41:11.990Z,99895.25
2022-12-23T20:43:39.858Z,99896.25
2022-12-23T20:46:07.498Z,99882.72
2022-12-23T20:48:34.740Z,99876.53
2022-12-23T20:51:03.431Z,99890.06
2022-12-23T20:53:29.848Z,99890.06
2022-12-23T20:55:58.894Z,99882.03
2022-12-23T20:58:25.230Z,99887.22
2022-12-23T21:00:52.931Z,99894.41
2022-12-23T21:03:19.337Z,99889.06
2022-12-23T21:05:45.690Z,99906.09
2022-12-23T21:08:12.338Z,99908.75
2022-12-23T21:10:38.739Z,99914.09
2022-12-23T21:13:05.592Z,99907.78
2022-12-23T21:15:32.404Z,99910.59
2022-12-23T21:18:00.033Z,99911.44
2022-12-23T21:20:26.443Z,99915.94
2022-12-23T21:22:52.762Z,99909.72
2022-12-23T21:25:19.142Z,99914.94
2022-12-23T21:27:45.639Z,99900.75
2022-12-23T21:30:12.180Z,99911.44
2022-12-23T21:32:38.499Z,99911.44
2022-12-23T21:35:06.559Z,99915.06
2022-12-23T21:37:32.900Z,99923.81
2022-12-23T21:39:59.188Z,99921.28
2022-12-23T21:42:25.559Z,99921.28
2022-12-23T21:44:51.886Z,99920.41
2022-12-23T21:47:18.273Z,99930.25
2022-12-23T21:49:44.637Z,99937.31
2022-12-23T21:52:12.299Z,99940.94
2022-12-23T21:54:38.653Z,99947.13
2022-12-23T21:57:04.966Z,99936.44
2022-12-23T21:59:35.155Z,99927.56
2022-12-23T22:02:01.992Z,99936.44
2022-12-23T22:04:28.538Z,99936.44
2022-12-23T22:06:54.866Z,99940.94
2022-12-23T22:09:22.547Z,99929.41
2022-12-23T22:11:48.854Z,99934.75
2022-12-23T22:14:16.796Z,99923.06
2022-12-23T22:16:43.214Z,99919.44
2022-12-23T22:19:10.860Z,99923.06
2022-12-23T22:21:38.205Z,99915.06
2022-12-23T22:24:05.156Z,99917.72
2022-12-23T22:26:33.226Z,99923.06
2022-12-23T22:29:00.930Z,99917.88
2022-12-23T22:31:30.543Z,99932.91
2022-12-23T22:33:56.960Z,99929.41
2022-12-23T22:36:23.284Z,99930.25
2022-12-23T22:38:51.363Z,99936.44
2022-12-23T22:41:17.769Z,99923.22
2022-12-23T22:43:45.427Z,99933.06
2022-12-23T22:46:12.450Z,99919.56
2022-12-23T22:48:39.081Z,99937.41
2022-12-23T22:51:06.431Z,99942.75
2022-12-23T22:53:32.974Z,99935.72
2022-12-23T22:55:59.330Z,99944.59
2022-12-23T22:58:26.136Z,99949.94
2022-12-23T23:00:53.807Z,99951.75
2022-12-23T23:03:20.461Z,99947.25
2022-12-23T23:05:55.333Z,99956.25
2022-12-23T23:08:21.715Z,99961.59
2022-12-23T23:10:48.034Z,99955.38
2022-12-23T23:13:14.340Z,99958.06
2022-12-23T23:15:40.692Z,99954.53
2022-12-23T23:18:08.393Z,99957.22
2022-12-23T23:20:34.706Z,99959.78
2022-12-23T23:23:01.012Z,99970.47
2022-12-23T23:25:27.335Z,99965.13
2022-12-23T23:27:53.670Z,99959.78
2022-12-23T23:30:19.983Z,99964.28
2022-12-23T23:32:46.486Z,99967.81
2022-12-23T23:35:14.406Z,99978.50
2022-12-23T23:37:40.738Z,99975.81
2022-12-23T23:40:07.493Z,99973.00
2022-12-23T23:42:33.777Z,99981.16
2022-12-23T23:45:00.193Z,99982.84
2022-12-23T23:47:26.541Z,99991.84
2022-12-23T23:49:52.974Z,99986.50
2022-12-23T23:52:20.809Z,99988.19
2022-12-23T23:54:47.102Z,99969.63
2022-12-23T23:57:13.478Z,99977.66
2022-12-23T23:59:39.807Z,99981.16
